West Sayville, New York
Current Conditions -  °F | °C
As of 10:56 PM on Saturday 20 Dec 2014 (Local Time) from KISP Reporting Station
Overcast Overcast  
Wind Chill: 33°   Ceiling: 2500
Heat Index: 33°   Visibility: 10mi
Dew Point: 24°   Wind: 0mph
Humidity: 70%   Direction: NA
Pressure: 30.26"   Gusts: NA
Location:  40.73°N, 73.1°W
Report Text: KISP 210356Z 00000KT 10SM SCT015 OVC025 01/M04 A3026 RMK AO2 SLP248 T00061044
Loading
Personal Weather Stations






























Interactive Weather Map New forecast layout! Learn more

10-Day Weather Forecast

Advertisements
Track Severe Weather on mobile